Time,TemperatureF,DewpointF,PressureIn,WindDirection,WindDirectionDegrees,WindSpeedMPH,WindSpeedGustMPH,Humidity,HourlyPrecipIn,Conditions,Clouds,dailyrainin,SoftwareType,DateUTC
2013-03-14 00:03:00,52.5,49.8,30.00,West,270,0.0,-999.0,90,0.12,,,4.41,,2013-03-14 07:03:00,
2013-03-14 00:08:00,52.5,49.8,30.00,West,270,0.0,-999.0,90,0.12,,,4.41,,2013-03-14 07:08:00,
2013-03-14 00:13:00,52.2,49.7,30.00,West,270,0.0,-999.0,91,0.12,,,4.41,,2013-03-14 07:13:00,
2013-03-14 00:18:00,52.0,49.5,30.00,West,270,0.0,-999.0,91,0.12,,,4.41,,2013-03-14 07:18:00,
2013-03-14 00:23:00,52.0,49.6,30.00,West,270,0.0,-999.0,91,0.12,,,4.41,,2013-03-14 07:23:00,
2013-03-14 00:28:00,52.2,49.5,30.00,West,270,0.0,-999.0,90,0.12,,,4.41,,2013-03-14 07:28:00,
2013-03-14 00:33:00,52.9,50.0,29.99,West,270,0.0,-999.0,90,0.12,,,4.41,,2013-03-14 07:33:00,
2013-03-14 00:38:00,53.6,50.2,30.00,West,270,0.0,-999.0,88,0.12,,,4.41,,2013-03-14 07:38:00,
2013-03-14 00:43:00,53.2,50.1,30.00,West,270,0.0,-999.0,89,0.12,,,4.41,,2013-03-14 07:43:00,
2013-03-14 00:48:00,54.7,52.0,30.00,West,270,0.0,-999.0,90,0.12,,,4.41,,2013-03-14 07:48:00,
2013-03-14 00:53:00,54.7,50.7,30.00,West,270,0.0,-999.0,86,0.12,,,4.41,,2013-03-14 07:53:00,
2013-03-14 00:58:00,53.2,49.0,30.00,West,270,0.0,-999.0,85,0.12,,,4.41,,2013-03-14 07:58:00,
2013-03-14 01:03:00,51.8,48.8,30.00,West,270,0.0,-999.0,89,0.12,,,4.41,,2013-03-14 08:03:00,
2013-03-14 01:08:00,52.0,48.9,30.00,West,270,0.0,-999.0,89,0.12,,,4.41,,2013-03-14 08:08:00,
2013-03-14 01:13:00,51.8,48.8,30.00,West,270,0.0,-999.0,89,0.12,,,4.41,,2013-03-14 08:13:00,
2013-03-14 01:18:00,52.2,48.9,30.00,West,270,0.0,-999.0,88,0.12,,,4.41,,2013-03-14 08:18:00,
2013-03-14 01:23:00,51.6,48.8,30.00,West,270,0.0,-999.0,90,0.12,,,4.41,,2013-03-14 08:23:00,
2013-03-14 01:29:00,51.4,48.8,30.00,West,270,0.0,-999.0,90,0.12,,,4.41,,2013-03-14 08:29:00,
2013-03-14 01:34:00,51.4,48.8,30.00,West,270,0.0,-999.0,90,0.12,,,4.41,,2013-03-14 08:34:00,
2013-03-14 01:39:00,51.6,48.8,30.00,West,270,0.0,-999.0,90,0.12,,,4.41,,2013-03-14 08:39:00,
2013-03-14 01:44:00,51.4,48.7,30.00,West,270,0.0,-999.0,90,0.12,,,4.41,,2013-03-14 08:44:00,
2013-03-14 01:49:00,51.1,48.7,30.01,West,270,0.0,-999.0,91,0.12,,,4.41,,2013-03-14 08:49:00,
2013-03-14 01:54:00,50.9,48.6,30.00,West,270,0.0,-999.0,92,0.12,,,4.41,,2013-03-14 08:54:00,
2013-03-14 01:59:00,50.9,48.5,30.00,West,270,0.0,-999.0,91,0.12,,,4.41,,2013-03-14 08:59:00,
2013-03-14 02:04:00,50.9,48.7,30.00,West,270,0.0,-999.0,92,0.12,,,4.41,,2013-03-14 09:04:00,
2013-03-14 02:09:00,51.4,48.8,30.00,West,270,0.0,-999.0,90,0.12,,,4.41,,2013-03-14 09:09:00,
2013-03-14 02:14:00,50.9,48.5,30.00,West,270,0.0,-999.0,91,0.12,,,4.41,,2013-03-14 09:14:00,
2013-03-14 02:19:00,51.1,48.7,30.00,West,270,0.0,-999.0,91,0.12,,,4.41,,2013-03-14 09:19:00,
2013-03-14 02:24:00,51.4,49.0,30.00,West,270,0.0,-999.0,91,0.12,,,4.41,,2013-03-14 09:24:00,
2013-03-14 02:29:00,51.8,48.8,30.01,West,270,0.0,-999.0,89,0.12,,,4.41,,2013-03-14 09:29:00,
2013-03-14 02:34:00,51.6,48.7,30.01,West,270,0.0,-999.0,89,0.12,,,4.41,,2013-03-14 09:34:00,
2013-03-14 02:40:00,51.1,48.3,30.00,West,270,0.0,-999.0,90,0.12,,,4.41,,2013-03-14 09:40:00,
2013-03-14 02:45:00,50.9,48.3,30.01,West,270,0.0,-999.0,91,0.12,,,4.41,,2013-03-14 09:45:00,
2013-03-14 02:50:00,51.3,48.6,30.00,West,270,0.0,-999.0,90,0.12,,,4.41,,2013-03-14 09:50:00,
2013-03-14 02:55:00,50.9,48.4,30.00,West,270,0.0,-999.0,91,0.12,,,4.41,,2013-03-14 09:55:00,
2013-03-14 03:00:00,50.7,48.5,30.00,West,270,0.0,-999.0,92,0.12,,,4.41,,2013-03-14 10:00:00,
2013-03-14 03:05:00,50.2,48.3,29.99,West,270,0.0,-999.0,93,0.12,,,4.41,,2013-03-14 10:05:00,
2013-03-14 03:10:00,50.2,48.4,30.00,West,270,0.0,-999.0,93,0.12,,,4.41,,2013-03-14 10:10:00,
2013-03-14 03:15:00,50.2,48.4,29.99,West,270,0.0,-999.0,93,0.12,,,4.41,,2013-03-14 10:15:00,
2013-03-14 03:20:00,51.3,49.0,30.00,West,270,0.0,-999.0,92,0.12,,,4.41,,2013-03-14 10:20:00,
2013-03-14 03:25:00,52.5,50.3,30.00,West,270,0.0,-999.0,92,0.12,,,4.41,,2013-03-14 10:25:00,
2013-03-14 03:30:00,52.5,49.1,30.00,West,270,0.0,-999.0,88,0.12,,,4.41,,2013-03-14 10:30:00,
2013-03-14 03:35:00,52.7,50.1,30.00,West,270,0.0,-999.0,91,0.12,,,4.41,,2013-03-14 10:35:00,
2013-03-14 03:40:00,52.7,49.6,29.99,West,270,0.0,-999.0,89,0.12,,,4.41,,2013-03-14 10:40:00,
2013-03-14 03:45:00,52.7,49.9,29.99,West,270,0.0,-999.0,90,0.12,,,4.41,,2013-03-14 10:45:00,
2013-03-14 03:50:00,52.2,48.9,30.00,West,270,0.0,-999.0,88,0.12,,,4.41,,2013-03-14 10:50:00,
2013-03-14 03:55:00,52.0,48.6,29.99,West,270,0.0,-999.0,88,0.12,,,4.41,,2013-03-14 10:55:00,
2013-03-14 04:01:00,51.4,48.1,29.99,West,270,0.0,-999.0,88,0.12,,,4.41,,2013-03-14 11:01:00,
2013-03-14 04:06:00,51.1,48.4,29.99,West,270,0.0,-999.0,90,0.12,,,4.41,,2013-03-14 11:06:00,
2013-03-14 04:11:00,51.3,48.2,29.98,West,270,0.0,-999.0,89,0.12,,,4.41,,2013-03-14 11:11:00,
2013-03-14 04:16:00,50.2,47.8,29.98,West,270,0.0,-999.0,91,0.12,,,4.41,,2013-03-14 11:16:00,
2013-03-14 04:21:00,49.8,47.6,29.98,West,270,0.0,-999.0,92,0.11,,,4.41,,2013-03-14 11:21:00,
2013-03-14 04:26:00,50.4,47.9,29.99,West,270,0.0,-999.0,91,0.11,,,4.41,,2013-03-14 11:26:00,
2013-03-14 04:31:00,50.0,47.7,29.97,West,270,0.0,-999.0,91,0.11,,,4.41,,2013-03-14 11:31:00,
2013-03-14 04:36:00,50.0,47.7,29.98,West,270,0.0,-999.0,91,0.11,,,4.41,,2013-03-14 11:36:00,
2013-03-14 04:41:00,50.2,47.9,29.98,West,270,0.0,-999.0,91,0.11,,,4.41,,2013-03-14 11:41:00,
2013-03-14 04:46:00,50.2,47.9,29.98,West,270,0.0,-999.0,91,0.11,,,4.41,,2013-03-14 11:46:00,
2013-03-14 04:51:00,50.2,48.0,29.98,West,270,0.0,-999.0,92,0.11,,,4.41,,2013-03-14 11:51:00,
2013-03-14 04:56:00,49.8,47.9,29.98,West,270,0.0,-999.0,93,0.10,,,4.41,,2013-03-14 11:56:00,
2013-03-14 05:01:00,50.2,48.0,29.98,West,270,0.0,-999.0,92,0.10,,,4.41,,2013-03-14 12:01:00,
2013-03-14 05:06:00,50.4,47.9,29.99,West,270,0.0,-999.0,91,0.10,,,4.41,,2013-03-14 12:06:00,
2013-03-14 05:12:00,50.2,47.9,29.98,West,270,0.0,-999.0,92,0.10,,,4.41,,2013-03-14 12:12:00,
2013-03-14 05:17:00,49.6,47.6,29.98,West,270,0.0,-999.0,92,0.10,,,4.41,,2013-03-14 12:17:00,
2013-03-14 05:22:00,49.5,47.7,29.98,West,270,0.0,-999.0,93,0.10,,,4.41,,2013-03-14 12:22:00,
2013-03-14 05:27:00,49.5,47.7,29.98,West,270,0.0,-999.0,93,0.10,,,4.41,,2013-03-14 12:27:00,
2013-03-14 05:32:00,49.5,47.7,29.98,West,270,0.0,-999.0,93,0.10,,,4.41,,2013-03-14 12:32:00,
2013-03-14 05:37:00,49.5,47.8,29.99,West,270,0.0,-999.0,94,0.10,,,4.41,,2013-03-14 12:37:00,
2013-03-14 05:42:00,49.5,47.6,29.98,West,270,0.0,-999.0,93,0.10,,,4.41,,2013-03-14 12:42:00,
2013-03-14 05:47:00,49.5,47.6,29.99,West,270,0.0,-999.0,93,0.10,,,4.41,,2013-03-14 12:47:00,
2013-03-14 05:52:00,49.6,47.6,29.98,West,270,0.0,-999.0,92,0.10,,,4.41,,2013-03-14 12:52:00,
2013-03-14 05:57:00,49.6,47.6,29.98,West,270,0.0,-999.0,92,0.10,,,4.41,,2013-03-14 12:57:00,
2013-03-14 06:02:00,48.9,47.4,29.99,West,270,0.0,-999.0,94,0.10,,,4.41,,2013-03-14 13:02:00,
2013-03-14 06:07:00,48.9,47.5,29.99,West,270,0.0,-999.0,95,0.10,,,4.41,,2013-03-14 13:07:00,
2013-03-14 06:12:00,49.1,47.6,29.98,West,270,0.0,-999.0,94,0.10,,,4.41,,2013-03-14 13:12:00,
2013-03-14 06:17:00,49.3,47.6,29.99,West,270,0.0,-999.0,93,0.10,,,4.41,,2013-03-14 13:17:00,
2013-03-14 06:22:00,49.3,47.6,29.99,West,270,0.0,-999.0,93,0.10,,,4.41,,2013-03-14 13:22:00,
2013-03-14 06:27:00,49.3,47.6,29.99,West,270,0.0,-999.0,93,0.10,,,4.41,,2013-03-14 13:27:00,
2013-03-14 06:32:00,49.3,47.5,29.99,West,270,0.0,-999.0,93,0.10,,,4.41,,2013-03-14 13:32:00,
2013-03-14 06:37:00,49.1,47.6,29.99,West,270,0.0,-999.0,94,0.09,,,4.41,,2013-03-14 13:37:00,
2013-03-14 06:43:00,49.3,47.6,29.99,West,270,0.0,-999.0,94,0.09,,,4.41,,2013-03-14 13:43:00,
2013-03-14 06:48:00,49.5,47.6,29.99,West,270,0.0,-999.0,93,0.09,,,4.41,,2013-03-14 13:48:00,
2013-03-14 06:53:00,49.3,47.5,30.00,West,270,0.0,-999.0,93,0.09,,,4.41,,2013-03-14 13:53:00,
2013-03-14 06:58:00,48.9,47.4,29.99,West,270,0.0,-999.0,94,0.09,,,4.41,,2013-03-14 13:58:00,
2013-03-14 07:03:00,48.7,47.4,29.98,West,270,0.0,-999.0,95,0.09,,,4.41,,2013-03-14 14:03:00,
2013-03-14 07:08:00,49.1,47.5,30.00,West,270,0.0,-999.0,94,0.09,,,4.41,,2013-03-14 14:08:00,
2013-03-14 07:13:00,48.9,47.5,29.99,West,270,0.0,-999.0,94,0.09,,,4.41,,2013-03-14 14:13:00,
2013-03-14 07:18:00,49.1,47.4,30.00,West,270,0.0,-999.0,94,0.09,,,4.41,,2013-03-14 14:18:00,
2013-03-14 07:23:00,49.3,47.6,30.00,West,270,0.0,-999.0,94,0.09,,,4.41,,2013-03-14 14:23:00,
2013-03-14 07:28:00,49.5,47.7,30.00,West,270,0.0,-999.0,93,0.09,,,4.41,,2013-03-14 14:28:00,
2013-03-14 07:33:00,49.6,47.5,30.00,West,270,0.0,-999.0,92,0.10,,,4.42,,2013-03-14 14:33:00,
2013-03-14 07:38:00,49.3,47.5,30.00,West,270,0.0,-999.0,93,0.10,,,4.42,,2013-03-14 14:38:00,
2013-03-14 07:43:00,49.5,47.7,30.01,West,270,0.0,-999.0,93,0.09,,,4.42,,2013-03-14 14:43:00,
2013-03-14 07:49:00,49.1,47.6,30.01,West,270,0.0,-999.0,94,0.09,,,4.42,,2013-03-14 14:49:00,
2013-03-14 07:54:00,49.6,48.1,30.01,West,270,0.0,-999.0,94,0.09,,,4.42,,2013-03-14 14:54:00,
2013-03-14 07:59:00,50.5,48.2,30.00,West,270,0.0,-999.0,91,0.09,,,4.42,,2013-03-14 14:59:00,
2013-03-14 08:04:00,50.4,48.2,30.01,West,270,0.0,-999.0,92,0.09,,,4.42,,2013-03-14 15:04:00,
2013-03-14 08:09:00,50.7,48.4,30.01,West,270,0.0,-999.0,91,0.09,,,4.42,,2013-03-14 15:09:00,
2013-03-14 08:14:00,50.5,48.4,30.01,West,270,0.0,-999.0,92,0.09,,,4.42,,2013-03-14 15:14:00,
2013-03-14 08:19:00,51.3,49.0,30.02,West,270,0.0,-999.0,92,0.09,,,4.42,,2013-03-14 15:19:00,
2013-03-14 08:24:00,51.8,48.7,30.02,West,270,0.0,-999.0,89,0.09,,,4.42,,2013-03-14 15:24:00,
2013-03-14 08:29:00,52.0,49.3,30.02,West,270,0.0,-999.0,90,0.09,,,4.42,,2013-03-14 15:29:00,
2013-03-14 08:34:00,51.8,49.2,30.02,West,270,0.0,-999.0,90,0.09,,,4.42,,2013-03-14 15:34:00,
2013-03-14 08:39:00,51.4,49.1,30.03,West,270,0.0,-999.0,91,0.08,,,4.42,,2013-03-14 15:39:00,
2013-03-14 08:44:00,51.1,49.0,30.02,West,270,0.0,-999.0,92,0.08,,,4.42,,2013-03-14 15:44:00,
2013-03-14 08:49:00,50.9,49.2,30.03,West,270,0.0,-999.0,93,0.08,,,4.42,,2013-03-14 15:49:00,
2013-03-14 08:54:00,51.1,49.1,30.03,West,270,0.0,-999.0,92,0.08,,,4.42,,2013-03-14 15:54:00,
2013-03-14 08:59:00,51.8,49.5,30.04,West,270,0.0,-999.0,92,0.08,,,4.42,,2013-03-14 15:59:00,
2013-03-14 09:04:00,52.3,49.6,30.04,West,270,0.0,-999.0,90,0.08,,,4.42,,2013-03-14 16:04:00,
2013-03-14 09:09:00,52.7,49.7,30.04,West,270,0.0,-999.0,89,0.08,,,4.42,,2013-03-14 16:09:00,
2013-03-14 09:14:00,53.4,49.8,30.03,West,270,0.0,-999.0,87,0.08,,,4.42,,2013-03-14 16:14:00,
2013-03-14 09:19:00,53.2,49.6,30.04,West,270,0.0,-999.0,87,0.08,,,4.42,,2013-03-14 16:19:00,
2013-03-14 09:24:00,53.4,49.8,30.04,West,270,0.0,-999.0,87,0.09,,,4.43,,2013-03-14 16:24:00,
2013-03-14 09:29:00,54.1,50.3,30.04,West,270,0.0,-999.0,87,0.09,,,4.43,,2013-03-14 16:29:00,
2013-03-14 09:34:00,55.2,50.8,30.05,West,270,0.0,-999.0,85,0.09,,,4.43,,2013-03-14 16:34:00,
2013-03-14 09:40:00,56.3,51.6,30.04,West,270,0.0,-999.0,84,0.09,,,4.43,,2013-03-14 16:40:00,
2013-03-14 09:45:00,57.4,51.8,30.05,West,270,0.0,-999.0,81,0.09,,,4.43,,2013-03-14 16:45:00,
2013-03-14 09:50:00,57.7,50.8,30.05,West,270,0.0,-999.0,77,0.09,,,4.43,,2013-03-14 16:50:00,
2013-03-14 09:55:00,56.1,49.7,30.05,West,270,0.0,-999.0,79,0.09,,,4.43,,2013-03-14 16:55:00,
2013-03-14 10:00:00,56.7,50.4,30.05,West,270,0.0,-999.0,79,0.09,,,4.43,,2013-03-14 17:00:00,
2013-03-14 10:05:00,57.4,50.6,30.05,West,270,0.0,-999.0,78,0.09,,,4.43,,2013-03-14 17:05:00,
2013-03-14 10:10:00,57.0,50.5,30.05,West,270,0.0,-999.0,78,0.08,,,4.43,,2013-03-14 17:10:00,
2013-03-14 10:15:00,56.3,50.2,30.05,West,270,0.0,-999.0,80,0.08,,,4.43,,2013-03-14 17:15:00,
2013-03-14 10:20:00,55.6,49.9,30.06,West,270,0.0,-999.0,81,0.08,,,4.43,,2013-03-14 17:20:00,
2013-03-14 10:25:00,56.3,50.8,30.05,West,270,0.0,-999.0,81,0.08,,,4.43,,2013-03-14 17:25:00,
2013-03-14 10:30:00,58.3,52.2,30.05,West,270,0.0,-999.0,80,0.08,,,4.43,,2013-03-14 17:30:00,
2013-03-14 10:35:00,57.6,50.4,30.05,West,270,0.0,-999.0,77,0.08,,,4.43,,2013-03-14 17:35:00,
2013-03-14 10:40:00,56.5,50.3,30.04,West,270,0.0,-999.0,79,0.08,,,4.43,,2013-03-14 17:40:00,
2013-03-14 10:45:00,56.3,50.4,30.04,West,270,0.0,-999.0,80,0.08,,,4.43,,2013-03-14 17:45:00,
2013-03-14 10:51:00,56.3,50.3,30.05,West,270,0.0,-999.0,80,0.08,,,4.43,,2013-03-14 17:51:00,
2013-03-14 10:56:00,57.0,50.6,30.06,West,270,0.0,-999.0,79,0.08,,,4.43,,2013-03-14 17:56:00,
2013-03-14 11:01:00,56.8,50.3,30.05,West,270,0.0,-999.0,78,0.08,,,4.43,,2013-03-14 18:01:00,
2013-03-14 11:06:00,57.2,50.8,30.06,West,270,0.0,-999.0,79,0.08,,,4.43,,2013-03-14 18:06:00,
2013-03-14 11:11:00,58.5,51.3,30.06,West,270,0.0,-999.0,77,0.08,,,4.43,,2013-03-14 18:11:00,
2013-03-14 11:16:00,59.4,51.4,30.05,West,270,0.0,-999.0,75,0.08,,,4.43,,2013-03-14 18:16:00,
2013-03-14 11:21:00,58.6,51.0,30.06,West,270,0.0,-999.0,75,0.09,,,4.44,,2013-03-14 18:21:00,
2013-03-14 11:26:00,58.8,51.0,30.06,West,270,0.0,-999.0,75,0.09,,,4.44,,2013-03-14 18:26:00,
2013-03-14 11:31:00,59.2,51.1,30.06,West,270,0.0,-999.0,74,0.09,,,4.44,,2013-03-14 18:31:00,
2013-03-14 11:36:00,59.5,51.3,30.06,West,270,0.0,-999.0,74,0.09,,,4.44,,2013-03-14 18:36:00,
2013-03-14 11:41:00,59.7,51.9,30.06,West,270,0.0,-999.0,75,0.09,,,4.44,,2013-03-14 18:41:00,
2013-03-14 11:46:00,61.2,52.6,30.06,West,270,0.0,-999.0,73,0.09,,,4.44,,2013-03-14 18:46:00,
2013-03-14 11:52:00,62.6,52.4,30.06,West,270,0.0,-999.0,69,0.09,,,4.44,,2013-03-14 18:52:00,
2013-03-14 11:57:00,62.6,52.7,30.07,West,270,0.0,-999.0,70,0.10,,,4.45,,2013-03-14 18:57:00,
2013-03-14 12:02:00,63.5,52.8,30.07,West,270,0.0,-999.0,68,0.10,,,4.45,,2013-03-14 19:02:00,
2013-03-14 12:07:00,62.2,51.0,30.06,West,270,0.0,-999.0,66,0.10,,,4.45,,2013-03-14 19:07:00,
2013-03-14 12:12:00,61.2,51.2,30.06,West,270,0.0,-999.0,69,0.10,,,4.45,,2013-03-14 19:12:00,
2013-03-14 12:17:00,60.8,51.1,30.06,West,270,0.0,-999.0,70,0.11,,,4.47,,2013-03-14 19:17:00,
2013-03-14 12:22:00,61.5,51.3,30.06,West,270,0.0,-999.0,69,0.11,,,4.47,,2013-03-14 19:22:00,
2013-03-14 12:27:00,60.4,51.0,30.06,West,270,0.0,-999.0,71,0.11,,,4.47,,2013-03-14 19:27:00,
2013-03-14 12:32:00,61.9,51.2,30.06,West,270,0.0,-999.0,68,0.11,,,4.47,,2013-03-14 19:32:00,
2013-03-14 12:37:00,62.1,51.8,30.06,West,270,0.0,-999.0,69,0.11,,,4.47,,2013-03-14 19:37:00,
2013-03-14 12:42:00,63.5,51.9,30.05,West,270,0.0,-999.0,66,0.11,,,4.47,,2013-03-14 19:42:00,
2013-03-14 12:47:00,62.6,52.2,30.05,West,270,0.0,-999.0,68,0.11,,,4.47,,2013-03-14 19:47:00,
2013-03-14 12:52:00,63.5,52.5,30.05,West,270,0.0,-999.0,67,0.11,,,4.47,,2013-03-14 19:52:00,
2013-03-14 12:57:00,64.4,52.3,30.05,West,270,0.0,-999.0,65,0.11,,,4.47,,2013-03-14 19:57:00,
2013-03-14 13:02:00,65.5,52.5,30.05,West,270,0.0,-999.0,62,0.11,,,4.47,,2013-03-14 20:02:00,
2013-03-14 13:07:00,65.5,52.3,30.05,West,270,0.0,-999.0,62,0.11,,,4.47,,2013-03-14 20:07:00,
2013-03-14 13:12:00,64.6,52.0,30.06,West,270,0.0,-999.0,63,0.11,,,4.47,,2013-03-14 20:12:00,
2013-03-14 13:17:00,63.3,51.4,30.06,West,270,0.0,-999.0,65,0.11,,,4.47,,2013-03-14 20:17:00,
2013-03-14 13:22:00,62.1,50.6,30.04,West,270,0.0,-999.0,66,0.11,,,4.47,,2013-03-14 20:22:00,
2013-03-14 13:27:00,62.6,52.0,30.04,West,270,0.0,-999.0,68,0.11,,,4.47,,2013-03-14 20:27:00,
2013-03-14 13:32:00,63.7,51.5,30.04,West,270,0.0,-999.0,64,0.12,,,4.48,,2013-03-14 20:32:00,
2013-03-14 13:37:00,63.9,51.0,30.04,West,270,0.0,-999.0,63,0.12,,,4.48,,2013-03-14 20:37:00,
2013-03-14 13:42:00,64.6,50.8,30.04,West,270,0.0,-999.0,60,0.12,,,4.48,,2013-03-14 20:42:00,
2013-03-14 13:47:00,65.7,51.7,30.04,West,270,0.0,-999.0,60,0.12,,,4.48,,2013-03-14 20:47:00,
2013-03-14 13:52:00,65.8,52.0,30.03,West,270,0.0,-999.0,61,0.12,,,4.48,,2013-03-14 20:52:00,
2013-03-14 13:58:00,68.0,52.1,30.03,West,270,0.0,-999.0,56,0.12,,,4.48,,2013-03-14 20:58:00,
2013-03-14 14:03:00,66.6,51.8,30.04,West,270,0.0,-999.0,59,0.12,,,4.48,,2013-03-14 21:03:00,
2013-03-14 14:08:00,65.7,51.6,30.04,West,270,0.0,-999.0,60,0.12,,,4.48,,2013-03-14 21:08:00,
2013-03-14 14:13:00,66.2,51.7,30.04,West,270,0.0,-999.0,59,0.12,,,4.48,,2013-03-14 21:13:00,
2013-03-14 14:18:00,67.3,49.4,30.04,West,270,0.0,-999.0,52,0.12,,,4.48,,2013-03-14 21:18:00,
2013-03-14 14:23:00,67.1,50.2,30.04,West,270,0.0,-999.0,54,0.12,,,4.48,,2013-03-14 21:23:00,
2013-03-14 14:28:00,64.6,49.9,30.04,West,270,0.0,-999.0,59,0.12,,,4.48,,2013-03-14 21:28:00,
2013-03-14 14:34:00,64.0,50.8,30.04,West,270,0.0,-999.0,62,0.12,,,4.48,,2013-03-14 21:34:00,
2013-03-14 14:39:00,63.5,49.8,30.04,West,270,0.0,-999.0,61,0.12,,,4.48,,2013-03-14 21:39:00,
2013-03-14 14:44:00,62.2,49.0,30.04,West,270,0.0,-999.0,61,0.12,,,4.48,,2013-03-14 21:44:00,
2013-03-14 14:49:00,64.0,50.6,30.03,West,270,0.0,-999.0,61,0.12,,,4.48,,2013-03-14 21:49:00,
2013-03-14 14:54:00,65.8,50.1,30.03,West,270,0.0,-999.0,56,0.12,,,4.48,,2013-03-14 21:54:00,
2013-03-14 14:59:00,67.1,50.2,30.03,West,270,0.0,-999.0,54,0.12,,,4.48,,2013-03-14 21:59:00,
2013-03-14 15:04:00,66.9,50.8,30.03,West,270,0.0,-999.0,56,0.12,,,4.48,,2013-03-14 22:04:00,
2013-03-14 15:09:00,66.0,49.6,30.03,West,270,0.0,-999.0,55,0.12,,,4.48,,2013-03-14 22:09:00,
2013-03-14 15:14:00,64.6,48.9,30.03,West,270,0.0,-999.0,56,0.12,,,4.48,,2013-03-14 22:14:00,
2013-03-14 15:19:00,66.0,49.7,30.03,West,270,0.0,-999.0,55,0.12,,,4.48,,2013-03-14 22:19:00,
2013-03-14 15:24:00,66.6,49.7,30.03,West,270,0.0,-999.0,54,0.12,,,4.48,,2013-03-14 22:24:00,
2013-03-14 15:29:00,66.2,50.2,30.03,West,270,0.0,-999.0,56,0.12,,,4.48,,2013-03-14 22:29:00,
2013-03-14 15:35:00,64.8,50.3,30.04,West,270,0.0,-999.0,59,0.12,,,4.48,,2013-03-14 22:35:00,
2013-03-14 15:40:00,63.3,49.4,30.04,West,270,0.0,-999.0,60,0.10,,,4.48,,2013-03-14 22:40:00,
2013-03-14 15:45:00,63.0,49.0,30.03,West,270,0.0,-999.0,60,0.10,,,4.48,,2013-03-14 22:45:00,
2013-03-14 15:50:00,62.6,49.7,30.04,West,270,0.0,-999.0,62,0.10,,,4.48,,2013-03-14 22:50:00,
2013-03-14 15:55:00,62.8,47.9,30.03,West,270,0.0,-999.0,58,0.10,,,4.48,,2013-03-14 22:55:00,
2013-03-14 16:00:00,63.1,48.8,30.03,West,270,0.0,-999.0,59,0.10,,,4.48,,2013-03-14 23:00:00,
2013-03-14 16:05:00,63.1,48.8,30.03,West,270,0.0,-999.0,59,0.10,,,4.48,,2013-03-14 23:05:00,
2013-03-14 16:10:00,62.8,49.2,30.03,West,270,0.0,-999.0,61,0.10,,,4.48,,2013-03-14 23:10:00,
2013-03-14 16:15:00,61.7,48.9,30.04,West,270,0.0,-999.0,62,0.10,,,4.48,,2013-03-14 23:15:00,
2013-03-14 16:20:00,61.9,49.5,30.04,West,270,0.0,-999.0,64,0.10,,,4.48,,2013-03-14 23:20:00,
2013-03-14 16:25:00,62.1,49.3,30.04,West,270,0.0,-999.0,63,0.10,,,4.48,,2013-03-14 23:25:00,
2013-03-14 16:30:00,62.1,49.4,30.03,West,270,0.0,-999.0,63,0.10,,,4.48,,2013-03-14 23:30:00,
2013-03-14 16:36:00,62.1,50.5,30.05,West,270,0.0,-999.0,65,0.10,,,4.48,,2013-03-14 23:36:00,
2013-03-14 16:41:00,61.5,49.8,30.04,West,270,0.0,-999.0,65,0.10,,,4.48,,2013-03-14 23:41:00,
2013-03-14 16:46:00,61.7,50.6,30.04,West,270,0.0,-999.0,67,0.10,,,4.48,,2013-03-14 23:46:00,
2013-03-14 16:51:00,61.5,50.3,30.03,West,270,0.0,-999.0,66,0.10,,,4.48,,2013-03-14 23:51:00,
2013-03-14 16:56:00,61.5,50.1,30.04,West,270,0.0,-999.0,66,0.10,,,4.48,,2013-03-14 23:56:00,
2013-03-14 17:01:00,61.9,50.1,30.03,West,270,0.0,-999.0,65,0.10,,,4.48,,2013-03-15 00:01:00,
2013-03-14 17:06:00,61.9,49.8,30.04,West,270,0.0,-999.0,64,0.10,,,4.48,,2013-03-15 00:06:00,
2013-03-14 17:11:00,62.1,50.1,30.03,West,270,0.0,-999.0,64,0.10,,,4.48,,2013-03-15 00:11:00,
2013-03-14 17:16:00,61.5,49.7,30.03,West,270,0.0,-999.0,65,0.10,,,4.48,,2013-03-15 00:16:00,
2013-03-14 17:22:00,61.2,48.8,30.02,West,270,0.0,-999.0,63,0.10,,,4.48,,2013-03-15 00:22:00,
2013-03-14 17:27:00,61.3,49.4,30.02,West,270,0.0,-999.0,65,0.10,,,4.48,,2013-03-15 00:27:00,
2013-03-14 17:32:00,61.3,48.7,30.02,West,270,0.0,-999.0,63,0.10,,,4.48,,2013-03-15 00:32:00,
2013-03-14 17:37:00,61.9,49.2,30.02,West,270,0.0,-999.0,63,0.10,,,4.48,,2013-03-15 00:37:00,
2013-03-14 17:42:00,61.9,49.5,30.01,West,270,0.0,-999.0,63,0.10,,,4.48,,2013-03-15 00:42:00,
2013-03-14 17:47:00,60.3,49.0,30.01,West,270,0.0,-999.0,66,0.10,,,4.48,,2013-03-15 00:47:00,
2013-03-14 17:52:00,60.8,48.6,30.01,West,270,0.0,-999.0,64,0.10,,,4.48,,2013-03-15 00:52:00,
2013-03-14 17:57:00,59.7,48.6,30.01,West,270,0.0,-999.0,66,0.10,,,4.48,,2013-03-15 00:57:00,
2013-03-14 18:02:00,60.1,48.1,30.01,West,270,0.0,-999.0,64,0.10,,,4.48,,2013-03-15 01:02:00,
2013-03-14 18:07:00,59.4,48.1,30.01,West,270,0.0,-999.0,66,0.10,,,4.48,,2013-03-15 01:07:00,
2013-03-14 18:12:00,58.8,47.9,30.01,West,270,0.0,-999.0,67,0.10,,,4.48,,2013-03-15 01:12:00,
2013-03-14 18:17:00,58.8,48.9,30.00,West,270,0.0,-999.0,69,0.10,,,4.48,,2013-03-15 01:17:00,
2013-03-14 18:22:00,59.9,48.5,30.00,West,270,0.0,-999.0,66,0.10,,,4.48,,2013-03-15 01:22:00,
2013-03-14 18:27:00,59.2,48.1,30.01,West,270,0.0,-999.0,66,0.10,,,4.48,,2013-03-15 01:27:00,
2013-03-14 18:33:00,58.1,48.4,30.00,West,270,0.0,-999.0,70,0.10,,,4.48,,2013-03-15 01:33:00,
2013-03-14 18:38:00,58.1,48.6,30.01,West,270,0.0,-999.0,70,0.10,,,4.48,,2013-03-15 01:38:00,
2013-03-14 18:43:00,57.6,48.7,30.00,West,270,0.0,-999.0,72,0.10,,,4.48,,2013-03-15 01:43:00,
2013-03-14 18:48:00,57.4,48.6,30.01,West,270,0.0,-999.0,72,0.10,,,4.48,,2013-03-15 01:48:00,
2013-03-14 18:53:00,56.8,48.5,30.01,West,270,0.0,-999.0,73,0.10,,,4.48,,2013-03-15 01:53:00,
2013-03-14 18:58:00,56.8,49.3,30.00,West,270,0.0,-999.0,75,0.10,,,4.48,,2013-03-15 01:58:00,
2013-03-14 19:03:00,58.1,50.3,30.01,West,270,0.0,-999.0,75,0.10,,,4.48,,2013-03-15 02:03:00,
2013-03-14 19:08:00,58.3,50.3,30.01,West,270,0.0,-999.0,74,0.10,,,4.48,,2013-03-15 02:08:00,
2013-03-14 19:13:00,57.9,49.0,30.01,West,270,0.0,-999.0,72,0.10,,,4.48,,2013-03-15 02:13:00,
2013-03-14 19:18:00,57.7,49.6,30.01,West,270,0.0,-999.0,74,0.10,,,4.48,,2013-03-15 02:18:00,
2013-03-14 19:23:00,57.6,50.0,30.00,West,270,0.0,-999.0,75,0.10,,,4.48,,2013-03-15 02:23:00,
2013-03-14 19:29:00,57.6,50.4,30.01,West,270,0.0,-999.0,77,0.10,,,4.48,,2013-03-15 02:29:00,
2013-03-14 19:34:00,57.0,49.8,30.01,West,270,0.0,-999.0,77,0.10,,,4.48,,2013-03-15 02:34:00,
2013-03-14 19:39:00,56.1,48.9,30.01,West,270,0.0,-999.0,76,0.10,,,4.48,,2013-03-15 02:39:00,
2013-03-14 19:44:00,55.8,48.7,30.01,West,270,0.0,-999.0,77,0.10,,,4.48,,2013-03-15 02:44:00,
2013-03-14 19:49:00,56.3,49.3,30.00,West,270,0.0,-999.0,77,0.10,,,4.48,,2013-03-15 02:49:00,
2013-03-14 19:54:00,56.8,48.2,30.01,West,270,0.0,-999.0,72,0.10,,,4.48,,2013-03-15 02:54:00,
2013-03-14 19:59:00,55.4,48.4,30.01,West,270,0.0,-999.0,77,0.10,,,4.48,,2013-03-15 02:59:00,
2013-03-14 20:04:00,55.8,48.5,30.02,West,270,0.0,-999.0,76,0.10,,,4.48,,2013-03-15 03:04:00,
2013-03-14 20:09:00,54.7,47.7,30.01,West,270,0.0,-999.0,77,0.10,,,4.48,,2013-03-15 03:09:00,
2013-03-14 20:14:00,54.3,48.4,30.01,West,270,0.0,-999.0,80,0.10,,,4.48,,2013-03-15 03:14:00,
2013-03-14 20:19:00,54.3,48.1,30.00,West,270,0.0,-999.0,79,0.10,,,4.48,,2013-03-15 03:19:00,
2013-03-14 20:24:00,54.3,48.0,30.00,West,270,0.0,-999.0,79,0.10,,,4.48,,2013-03-15 03:24:00,
2013-03-14 20:29:00,55.0,49.8,30.00,West,270,0.0,-999.0,82,0.10,,,4.48,,2013-03-15 03:29:00,
2013-03-14 20:35:00,56.7,49.8,30.01,West,270,0.0,-999.0,77,0.10,,,4.48,,2013-03-15 03:35:00,
2013-03-14 20:40:00,55.0,48.6,30.02,West,270,0.0,-999.0,78,0.10,,,4.48,,2013-03-15 03:40:00,
2013-03-14 20:45:00,54.9,50.0,30.02,West,270,0.0,-999.0,83,0.10,,,4.48,,2013-03-15 03:45:00,
2013-03-14 20:50:00,55.4,50.2,30.02,West,270,0.0,-999.0,82,0.10,,,4.48,,2013-03-15 03:50:00,
2013-03-14 20:55:00,54.1,49.7,30.02,West,270,0.0,-999.0,85,0.10,,,4.48,,2013-03-15 03:55:00,
2013-03-14 21:00:00,54.5,49.7,30.02,West,270,0.0,-999.0,84,0.10,,,4.48,,2013-03-15 04:00:00,
2013-03-14 21:01:00,54.5,49.3,30.02,West,270,0.0,-999.0,82,0.10,,,4.48,,2013-03-15 04:01:00,
2013-03-14 21:06:00,54.9,50.0,30.01,West,270,0.0,-999.0,83,0.10,,,4.48,,2013-03-15 04:06:00,
2013-03-14 21:11:00,54.7,48.9,30.02,West,270,0.0,-999.0,80,0.10,,,4.48,,2013-03-15 04:11:00,
2013-03-14 21:17:00,54.5,49.6,30.02,West,270,0.0,-999.0,83,0.10,,,4.48,,2013-03-15 04:17:00,
2013-03-14 21:22:00,54.9,49.6,30.01,West,270,0.0,-999.0,82,0.10,,,4.48,,2013-03-15 04:22:00,
2013-03-14 21:27:00,54.0,48.6,30.02,West,270,0.0,-999.0,82,0.10,,,4.48,,2013-03-15 04:27:00,
2013-03-14 21:32:00,53.8,49.0,30.02,West,270,0.0,-999.0,84,0.10,,,4.48,,2013-03-15 04:32:00,
2013-03-14 21:37:00,54.9,49.7,30.02,West,270,0.0,-999.0,82,0.08,,,4.48,,2013-03-15 04:37:00,
2013-03-14 21:42:00,55.2,48.9,30.02,West,270,0.0,-999.0,79,0.08,,,4.48,,2013-03-15 04:42:00,
2013-03-14 21:47:00,54.3,48.2,30.01,West,270,0.0,-999.0,79,0.08,,,4.48,,2013-03-15 04:47:00,
2013-03-14 21:52:00,53.8,47.8,30.01,West,270,0.0,-999.0,80,0.08,,,4.48,,2013-03-15 04:52:00,
2013-03-14 21:57:00,54.0,47.9,30.01,West,270,0.0,-999.0,80,0.08,,,4.48,,2013-03-15 04:57:00,
2013-03-14 22:02:00,54.0,47.8,30.01,West,270,0.0,-999.0,79,0.08,,,4.48,,2013-03-15 05:02:00,
2013-03-14 22:07:00,53.8,48.2,30.01,West,270,0.0,-999.0,81,0.08,,,4.48,,2013-03-15 05:07:00,
2013-03-14 22:12:00,53.6,47.6,30.02,West,270,0.0,-999.0,80,0.08,,,4.48,,2013-03-15 05:12:00,
2013-03-14 22:17:00,53.6,47.6,30.01,West,270,0.0,-999.0,80,0.08,,,4.48,,2013-03-15 05:17:00,
2013-03-14 22:22:00,53.6,47.3,30.02,West,270,0.0,-999.0,79,0.08,,,4.48,,2013-03-15 05:22:00,
2013-03-14 22:27:00,54.0,48.6,30.02,West,270,0.0,-999.0,82,0.08,,,4.48,,2013-03-15 05:27:00,
2013-03-14 22:32:00,54.0,48.6,30.02,West,270,0.0,-999.0,82,0.08,,,4.48,,2013-03-15 05:32:00,
2013-03-14 22:37:00,54.5,49.0,30.03,West,270,0.0,-999.0,81,0.08,,,4.48,,2013-03-15 05:37:00,
2013-03-14 22:42:00,53.8,49.0,30.03,West,270,0.0,-999.0,83,0.08,,,4.48,,2013-03-15 05:42:00,
2013-03-14 22:47:00,55.0,49.7,30.03,West,270,0.0,-999.0,82,0.08,,,4.48,,2013-03-15 05:47:00,
2013-03-14 22:52:00,55.6,49.7,30.04,West,270,0.0,-999.0,80,0.07,,,4.48,,2013-03-15 05:52:00,
2013-03-14 22:57:00,55.4,50.5,30.03,West,270,0.0,-999.0,83,0.07,,,4.48,,2013-03-15 05:57:00,
2013-03-14 23:02:00,54.7,49.0,30.03,West,270,0.0,-999.0,81,0.07,,,4.48,,2013-03-15 06:02:00,
2013-03-14 23:08:00,54.5,49.9,30.02,West,270,0.0,-999.0,84,0.07,,,4.48,,2013-03-15 06:08:00,
2013-03-14 23:13:00,54.9,49.9,30.02,West,270,0.0,-999.0,83,0.07,,,4.48,,2013-03-15 06:13:00,
2013-03-14 23:18:00,55.0,49.8,30.02,West,270,0.0,-999.0,82,0.07,,,4.48,,2013-03-15 06:18:00,
2013-03-14 23:23:00,54.1,48.6,30.03,West,270,0.0,-999.0,81,0.07,,,4.48,,2013-03-15 06:23:00,
2013-03-14 23:28:00,52.5,48.4,30.02,West,270,0.0,-999.0,85,0.07,,,4.48,,2013-03-15 06:28:00,
2013-03-14 23:33:00,52.9,48.9,30.02,West,270,0.0,-999.0,86,0.07,,,4.48,,2013-03-15 06:33:00,
2013-03-14 23:38:00,53.6,49.0,30.02,West,270,0.0,-999.0,84,0.07,,,4.48,,2013-03-15 06:38:00,
2013-03-14 23:43:00,53.2,48.8,30.02,West,270,0.0,-999.0,84,0.07,,,4.48,,2013-03-15 06:43:00,
2013-03-14 23:48:00,53.2,48.7,30.02,West,270,0.0,-999.0,84,0.07,,,4.48,,2013-03-15 06:48:00,
2013-03-14 23:53:00,52.5,48.1,30.02,West,270,0.0,-999.0,85,0.07,,,4.48,,2013-03-15 06:53:00,
2013-03-14 23:58:00,51.8,47.9,30.03,West,270,0.0,-999.0,86,0.07,,,4.48,,2013-03-15 06:58:00,